sensor_id;sensor_type;location;lat;lon;timestamp;P1;durP1;ratioP1;P2;durP2;ratioP2
77828;SDS011;67019;51.034;3.728;2023-02-28T00:01:26;10.80;;;6.25;;
77828;SDS011;67019;51.034;3.728;2023-02-28T00:03:55;10.05;;;5.42;;
77828;SDS011;67019;51.034;3.728;2023-02-28T00:06:23;17.42;;;5.95;;
77828;SDS011;67019;51.034;3.728;2023-02-28T00:08:51;11.45;;;5.03;;
77828;SDS011;67019;51.034;3.728;2023-02-28T00:11:20;15.68;;;6.58;;
77828;SDS011;67019;51.034;3.728;2023-02-28T00:13:50;9.98;;;5.58;;
77828;SDS011;67019;51.034;3.728;2023-02-28T00:16:19;13.22;;;5.40;;
77828;SDS011;67019;51.034;3.728;2023-02-28T00:18:48;12.60;;;5.05;;
77828;SDS011;67019;51.034;3.728;2023-02-28T00:21:16;8.80;;;5.35;;
77828;SDS011;67019;51.034;3.728;2023-02-28T00:23:44;10.30;;;5.78;;
77828;SDS011;67019;51.034;3.728;2023-02-28T00:26:13;12.33;;;6.28;;
77828;SDS011;67019;51.034;3.728;2023-02-28T00:28:40;11.63;;;5.78;;
77828;SDS011;67019;51.034;3.728;2023-02-28T00:31:09;10.88;;;6.50;;
77828;SDS011;67019;51.034;3.728;2023-02-28T00:33:38;8.60;;;5.55;;
77828;SDS011;67019;51.034;3.728;2023-02-28T00:36:07;10.93;;;6.22;;
77828;SDS011;67019;51.034;3.728;2023-02-28T00:38:36;15.85;;;6.28;;
77828;SDS011;67019;51.034;3.728;2023-02-28T00:41:05;8.08;;;5.53;;
77828;SDS011;67019;51.034;3.728;2023-02-28T00:43:38;11.28;;;5.60;;
77828;SDS011;67019;51.034;3.728;2023-02-28T00:46:03;9.68;;;6.40;;
77828;SDS011;67019;51.034;3.728;2023-02-28T00:48:31;9.43;;;6.05;;
77828;SDS011;67019;51.034;3.728;2023-02-28T00:51:02;8.83;;;6.65;;
77828;SDS011;67019;51.034;3.728;2023-02-28T00:53:31;28.02;;;7.35;;
77828;SDS011;67019;51.034;3.728;2023-02-28T00:56:01;11.35;;;6.58;;
77828;SDS011;67019;51.034;3.728;2023-02-28T00:58:32;11.63;;;5.90;;
77828;SDS011;67019;51.034;3.728;2023-02-28T01:01:00;8.63;;;6.10;;
77828;SDS011;67019;51.034;3.728;2023-02-28T01:03:28;13.62;;;5.85;;
77828;SDS011;67019;51.034;3.728;2023-02-28T01:05:55;10.78;;;6.47;;
77828;SDS011;67019;51.034;3.728;2023-02-28T01:08:23;10.15;;;6.53;;
77828;SDS011;67019;51.034;3.728;2023-02-28T01:10:52;17.07;;;6.42;;
77828;SDS011;67019;51.034;3.728;2023-02-28T01:13:19;11.80;;;6.95;;
77828;SDS011;67019;51.034;3.728;2023-02-28T01:15:49;12.25;;;7.20;;
77828;SDS011;67019;51.034;3.728;2023-02-28T01:18:19;15.60;;;7.78;;
77828;SDS011;67019;51.034;3.728;2023-02-28T01:20:48;14.80;;;7.87;;
77828;SDS011;67019;51.034;3.728;2023-02-28T01:23:19;12.35;;;5.72;;
77828;SDS011;67019;51.034;3.728;2023-02-28T01:25:49;16.07;;;7.25;;
77828;SDS011;67019;51.034;3.728;2023-02-28T01:28:18;12.05;;;7.12;;
77828;SDS011;67019;51.034;3.728;2023-02-28T01:30:49;11.38;;;7.12;;
77828;SDS011;67019;51.034;3.728;2023-02-28T01:33:17;7.62;;;6.37;;
77828;SDS011;67019;51.034;3.728;2023-02-28T01:35:45;12.40;;;6.75;;
77828;SDS011;67019;51.034;3.728;2023-02-28T01:38:12;11.10;;;6.47;;
77828;SDS011;67019;51.034;3.728;2023-02-28T01:40:42;13.50;;;6.70;;
77828;SDS011;67019;51.034;3.728;2023-02-28T01:43:16;10.28;;;6.58;;
77828;SDS011;67019;51.034;3.728;2023-02-28T01:48:07;11.18;;;6.28;;
77828;SDS011;67019;51.034;3.728;2023-02-28T01:50:36;14.03;;;6.90;;
77828;SDS011;67019;51.034;3.728;2023-02-28T01:53:08;13.32;;;7.75;;
77828;SDS011;67019;51.034;3.728;2023-02-28T01:58:09;15.65;;;7.42;;
77828;SDS011;67019;51.034;3.728;2023-02-28T02:00:37;13.60;;;7.58;;
77828;SDS011;67019;51.034;3.728;2023-02-28T02:03:08;12.13;;;7.28;;
77828;SDS011;67019;51.034;3.728;2023-02-28T02:05:38;10.98;;;7.00;;
77828;SDS011;67019;51.034;3.728;2023-02-28T02:08:11;12.00;;;7.17;;
77828;SDS011;67019;51.034;3.728;2023-02-28T02:10:41;13.05;;;7.65;;
77828;SDS011;67019;51.034;3.728;2023-02-28T02:19:22;17.20;;;8.28;;
77828;SDS011;67019;51.034;3.728;2023-02-28T02:35:25;17.27;;;8.05;;
77828;SDS011;67019;51.034;3.728;2023-02-28T02:37:58;14.55;;;8.00;;
77828;SDS011;67019;51.034;3.728;2023-02-28T02:42:55;11.22;;;7.70;;
77828;SDS011;67019;51.034;3.728;2023-02-28T02:47:55;11.75;;;7.22;;
77828;SDS011;67019;51.034;3.728;2023-02-28T02:50:33;10.55;;;6.70;;
77828;SDS011;67019;51.034;3.728;2023-02-28T02:53:01;12.63;;;7.58;;
77828;SDS011;67019;51.034;3.728;2023-02-28T02:55:31;10.13;;;7.12;;
77828;SDS011;67019;51.034;3.728;2023-02-28T03:00:34;15.28;;;6.95;;
77828;SDS011;67019;51.034;3.728;2023-02-28T03:03:05;10.98;;;7.95;;
77828;SDS011;67019;51.034;3.728;2023-02-28T03:05:36;14.80;;;7.25;;
77828;SDS011;67019;51.034;3.728;2023-02-28T03:08:14;9.67;;;7.27;;
77828;SDS011;67019;51.034;3.728;2023-02-28T03:10:44;11.43;;;7.03;;
77828;SDS011;67019;51.034;3.728;2023-02-28T03:24:32;12.23;;;7.85;;
77828;SDS011;67019;51.034;3.728;2023-02-28T03:27:06;12.40;;;7.95;;
77828;SDS011;67019;51.034;3.728;2023-02-28T03:32:04;14.80;;;8.05;;
77828;SDS011;67019;51.034;3.728;2023-02-28T03:34:34;11.53;;;7.72;;
77828;SDS011;67019;51.034;3.728;2023-02-28T03:39:46;8.50;;;6.40;;
77828;SDS011;67019;51.034;3.728;2023-02-28T03:42:19;12.13;;;7.47;;
77828;SDS011;67019;51.034;3.728;2023-02-28T03:44:56;14.47;;;7.72;;
77828;SDS011;67019;51.034;3.728;2023-02-28T03:48:15;13.65;;;8.20;;
77828;SDS011;67019;51.034;3.728;2023-02-28T03:50:24;23.15;;;8.43;;
77828;SDS011;67019;51.034;3.728;2023-02-28T03:53:12;13.45;;;8.03;;
77828;SDS011;67019;51.034;3.728;2023-02-28T03:55:48;10.53;;;7.10;;
77828;SDS011;67019;51.034;3.728;2023-02-28T03:58:32;13.30;;;8.70;;
77828;SDS011;67019;51.034;3.728;2023-02-28T04:01:09;10.50;;;7.67;;
77828;SDS011;67019;51.034;3.728;2023-02-28T04:03:41;14.10;;;7.83;;
77828;SDS011;67019;51.034;3.728;2023-02-28T04:06:13;11.25;;;7.70;;
77828;SDS011;67019;51.034;3.728;2023-02-28T04:08:43;12.23;;;8.43;;
77828;SDS011;67019;51.034;3.728;2023-02-28T04:11:18;17.23;;;7.42;;
77828;SDS011;67019;51.034;3.728;2023-02-28T04:13:50;12.85;;;7.80;;
77828;SDS011;67019;51.034;3.728;2023-02-28T04:16:17;16.52;;;7.70;;
77828;SDS011;67019;51.034;3.728;2023-02-28T04:18:45;16.57;;;8.60;;
77828;SDS011;67019;51.034;3.728;2023-02-28T04:21:14;11.57;;;6.65;;
77828;SDS011;67019;51.034;3.728;2023-02-28T04:23:44;15.85;;;8.35;;
77828;SDS011;67019;51.034;3.728;2023-02-28T04:26:11;16.25;;;8.30;;
77828;SDS011;67019;51.034;3.728;2023-02-28T04:28:39;16.05;;;7.05;;
77828;SDS011;67019;51.034;3.728;2023-02-28T04:31:08;12.10;;;7.28;;
77828;SDS011;67019;51.034;3.728;2023-02-28T04:33:36;13.05;;;7.85;;
77828;SDS011;67019;51.034;3.728;2023-02-28T04:36:05;11.93;;;7.80;;
77828;SDS011;67019;51.034;3.728;2023-02-28T04:41:05;14.98;;;7.92;;
77828;SDS011;67019;51.034;3.728;2023-02-28T04:43:33;17.90;;;7.58;;
77828;SDS011;67019;51.034;3.728;2023-02-28T04:46:02;10.35;;;7.87;;
77828;SDS011;67019;51.034;3.728;2023-02-28T04:48:31;9.73;;;7.17;;
77828;SDS011;67019;51.034;3.728;2023-02-28T04:55:59;18.50;;;8.30;;
77828;SDS011;67019;51.034;3.728;2023-02-28T04:58:27;15.05;;;7.15;;
77828;SDS011;67019;51.034;3.728;2023-02-28T05:01:01;13.60;;;7.80;;
77828;SDS011;67019;51.034;3.728;2023-02-28T05:03:32;10.50;;;6.90;;
77828;SDS011;67019;51.034;3.728;2023-02-28T05:05:58;11.73;;;7.25;;
77828;SDS011;67019;51.034;3.728;2023-02-28T05:08:25;13.05;;;8.18;;
77828;SDS011;67019;51.034;3.728;2023-02-28T05:10:55;11.70;;;7.22;;
77828;SDS011;67019;51.034;3.728;2023-02-28T05:13:22;10.60;;;7.08;;
77828;SDS011;67019;51.034;3.728;2023-02-28T05:15:50;10.38;;;7.12;;
77828;SDS011;67019;51.034;3.728;2023-02-28T05:18:18;11.08;;;6.05;;
77828;SDS011;67019;51.034;3.728;2023-02-28T05:20:46;11.65;;;7.10;;
77828;SDS011;67019;51.034;3.728;2023-02-28T05:23:13;11.68;;;6.90;;
77828;SDS011;67019;51.034;3.728;2023-02-28T05:25:42;14.35;;;7.60;;
77828;SDS011;67019;51.034;3.728;2023-02-28T05:28:10;11.48;;;7.55;;
77828;SDS011;67019;51.034;3.728;2023-02-28T05:30:38;14.87;;;7.67;;
77828;SDS011;67019;51.034;3.728;2023-02-28T05:33:05;20.00;;;7.78;;
77828;SDS011;67019;51.034;3.728;2023-02-28T05:35:33;11.93;;;7.25;;
77828;SDS011;67019;51.034;3.728;2023-02-28T05:38:02;11.30;;;7.08;;
77828;SDS011;67019;51.034;3.728;2023-02-28T05:40:30;10.10;;;6.97;;
77828;SDS011;67019;51.034;3.728;2023-02-28T05:42:59;15.60;;;7.12;;
77828;SDS011;67019;51.034;3.728;2023-02-28T05:45:26;14.63;;;7.33;;
77828;SDS011;67019;51.034;3.728;2023-02-28T05:47:54;12.43;;;8.38;;
77828;SDS011;67019;51.034;3.728;2023-02-28T05:50:22;20.57;;;9.13;;
77828;SDS011;67019;51.034;3.728;2023-02-28T05:52:50;15.60;;;7.20;;
77828;SDS011;67019;51.034;3.728;2023-02-28T05:55:18;17.73;;;7.75;;
77828;SDS011;67019;51.034;3.728;2023-02-28T05:57:46;14.25;;;8.50;;
77828;SDS011;67019;51.034;3.728;2023-02-28T06:00:14;13.13;;;6.17;;
77828;SDS011;67019;51.034;3.728;2023-02-28T06:02:43;11.80;;;6.95;;
77828;SDS011;67019;51.034;3.728;2023-02-28T06:05:14;10.68;;;7.12;;
77828;SDS011;67019;51.034;3.728;2023-02-28T06:07:44;12.18;;;6.78;;
77828;SDS011;67019;51.034;3.728;2023-02-28T06:10:12;12.28;;;7.85;;
77828;SDS011;67019;51.034;3.728;2023-02-28T06:12:40;11.65;;;7.80;;
77828;SDS011;67019;51.034;3.728;2023-02-28T06:15:13;11.97;;;7.03;;
77828;SDS011;67019;51.034;3.728;2023-02-28T06:20:06;11.22;;;6.28;;
77828;SDS011;67019;51.034;3.728;2023-02-28T06:22:35;12.20;;;6.60;;
77828;SDS011;67019;51.034;3.728;2023-02-28T06:25:03;11.20;;;7.08;;
77828;SDS011;67019;51.034;3.728;2023-02-28T06:27:32;12.58;;;7.25;;
77828;SDS011;67019;51.034;3.728;2023-02-28T06:30:02;11.68;;;6.65;;
77828;SDS011;67019;51.034;3.728;2023-02-28T06:32:32;13.05;;;7.45;;
77828;SDS011;67019;51.034;3.728;2023-02-28T06:35:00;12.03;;;6.78;;
77828;SDS011;67019;51.034;3.728;2023-02-28T06:37:28;14.05;;;7.25;;
77828;SDS011;67019;51.034;3.728;2023-02-28T06:39:57;11.50;;;7.25;;
77828;SDS011;67019;51.034;3.728;2023-02-28T06:42:26;11.43;;;6.60;;
77828;SDS011;67019;51.034;3.728;2023-02-28T06:44:58;12.40;;;6.67;;
77828;SDS011;67019;51.034;3.728;2023-02-28T06:47:26;13.85;;;7.25;;
77828;SDS011;67019;51.034;3.728;2023-02-28T06:49:54;14.87;;;8.68;;
77828;SDS011;67019;51.034;3.728;2023-02-28T06:52:21;24.25;;;7.97;;
77828;SDS011;67019;51.034;3.728;2023-02-28T06:54:49;15.40;;;6.90;;
77828;SDS011;67019;51.034;3.728;2023-02-28T06:57:18;17.42;;;7.47;;
77828;SDS011;67019;51.034;3.728;2023-02-28T06:59:46;16.77;;;8.13;;
77828;SDS011;67019;51.034;3.728;2023-02-28T07:02:15;11.80;;;7.30;;
77828;SDS011;67019;51.034;3.728;2023-02-28T07:04:43;13.78;;;7.10;;
77828;SDS011;67019;51.034;3.728;2023-02-28T07:07:11;16.30;;;7.30;;
77828;SDS011;67019;51.034;3.728;2023-02-28T07:12:08;14.53;;;7.85;;
77828;SDS011;67019;51.034;3.728;2023-02-28T07:14:36;10.25;;;6.15;;
77828;SDS011;67019;51.034;3.728;2023-02-28T07:17:06;12.18;;;6.37;;
77828;SDS011;67019;51.034;3.728;2023-02-28T07:19:34;13.30;;;6.80;;
77828;SDS011;67019;51.034;3.728;2023-02-28T07:22:02;9.98;;;6.35;;
77828;SDS011;67019;51.034;3.728;2023-02-28T07:24:30;15.15;;;6.97;;
77828;SDS011;67019;51.034;3.728;2023-02-28T07:26:59;9.75;;;6.35;;
77828;SDS011;67019;51.034;3.728;2023-02-28T07:29:28;10.82;;;6.22;;
77828;SDS011;67019;51.034;3.728;2023-02-28T07:31:56;14.85;;;6.60;;
77828;SDS011;67019;51.034;3.728;2023-02-28T07:34:24;13.78;;;7.10;;
77828;SDS011;67019;51.034;3.728;2023-02-28T07:36:54;12.75;;;6.55;;
77828;SDS011;67019;51.034;3.728;2023-02-28T07:39:28;14.85;;;6.75;;
77828;SDS011;67019;51.034;3.728;2023-02-28T07:41:54;10.25;;;6.50;;
77828;SDS011;67019;51.034;3.728;2023-02-28T07:46:57;17.60;;;5.70;;
77828;SDS011;67019;51.034;3.728;2023-02-28T07:49:29;12.65;;;6.87;;
77828;SDS011;67019;51.034;3.728;2023-02-28T07:51:58;11.90;;;6.05;;
77828;SDS011;67019;51.034;3.728;2023-02-28T07:54:26;11.00;;;6.17;;
77828;SDS011;67019;51.034;3.728;2023-02-28T07:56:53;13.62;;;5.75;;
77828;SDS011;67019;51.034;3.728;2023-02-28T07:59:21;9.75;;;6.10;;
77828;SDS011;67019;51.034;3.728;2023-02-28T08:01:49;6.10;;;3.98;;
77828;SDS011;67019;51.034;3.728;2023-02-28T08:04:19;10.55;;;5.67;;
77828;SDS011;67019;51.034;3.728;2023-02-28T08:06:47;9.10;;;5.60;;
77828;SDS011;67019;51.034;3.728;2023-02-28T08:09:17;7.10;;;4.80;;
77828;SDS011;67019;51.034;3.728;2023-02-28T08:11:47;9.17;;;5.43;;
77828;SDS011;67019;51.034;3.728;2023-02-28T08:14:14;14.03;;;5.65;;
77828;SDS011;67019;51.034;3.728;2023-02-28T08:16:42;10.75;;;5.58;;
77828;SDS011;67019;51.034;3.728;2023-02-28T08:19:13;8.75;;;4.83;;
77828;SDS011;67019;51.034;3.728;2023-02-28T08:21:45;12.53;;;5.65;;
77828;SDS011;67019;51.034;3.728;2023-02-28T08:24:14;11.80;;;5.55;;
77828;SDS011;67019;51.034;3.728;2023-02-28T08:26:42;8.65;;;4.83;;
77828;SDS011;67019;51.034;3.728;2023-02-28T08:29:10;11.70;;;6.33;;
77828;SDS011;67019;51.034;3.728;2023-02-28T08:31:37;15.48;;;6.35;;
77828;SDS011;67019;51.034;3.728;2023-02-28T08:34:08;11.03;;;5.83;;
77828;SDS011;67019;51.034;3.728;2023-02-28T08:36:38;13.00;;;6.03;;
77828;SDS011;67019;51.034;3.728;2023-02-28T08:39:08;8.88;;;5.78;;
77828;SDS011;67019;51.034;3.728;2023-02-28T08:41:36;11.68;;;5.37;;
77828;SDS011;67019;51.034;3.728;2023-02-28T08:44:03;15.95;;;6.35;;
77828;SDS011;67019;51.034;3.728;2023-02-28T08:46:31;10.13;;;5.95;;
77828;SDS011;67019;51.034;3.728;2023-02-28T08:49:01;10.95;;;5.92;;
77828;SDS011;67019;51.034;3.728;2023-02-28T08:51:30;8.98;;;5.87;;
77828;SDS011;67019;51.034;3.728;2023-02-28T08:53:59;14.95;;;5.25;;
77828;SDS011;67019;51.034;3.728;2023-02-28T08:56:28;12.68;;;5.50;;
77828;SDS011;67019;51.034;3.728;2023-02-28T08:58:57;8.48;;;5.95;;
77828;SDS011;67019;51.034;3.728;2023-02-28T09:01:27;9.13;;;5.80;;
77828;SDS011;67019;51.034;3.728;2023-02-28T09:03:55;10.00;;;4.97;;
77828;SDS011;67019;51.034;3.728;2023-02-28T09:06:24;18.90;;;5.65;;
77828;SDS011;67019;51.034;3.728;2023-02-28T09:08:53;7.67;;;5.70;;
77828;SDS011;67019;51.034;3.728;2023-02-28T09:11:27;6.55;;;4.17;;
77828;SDS011;67019;51.034;3.728;2023-02-28T09:13:55;15.08;;;5.35;;
77828;SDS011;67019;51.034;3.728;2023-02-28T09:16:26;9.23;;;5.85;;
77828;SDS011;67019;51.034;3.728;2023-02-28T09:18:53;5.92;;;3.55;;
77828;SDS011;67019;51.034;3.728;2023-02-28T09:21:21;10.98;;;5.65;;
77828;SDS011;67019;51.034;3.728;2023-02-28T09:23:49;7.65;;;5.35;;
77828;SDS011;67019;51.034;3.728;2023-02-28T09:26:19;9.75;;;5.78;;
77828;SDS011;67019;51.034;3.728;2023-02-28T09:28:48;13.95;;;7.00;;
77828;SDS011;67019;51.034;3.728;2023-02-28T09:31:18;11.57;;;6.03;;
77828;SDS011;67019;51.034;3.728;2023-02-28T09:33:48;10.90;;;4.90;;
77828;SDS011;67019;51.034;3.728;2023-02-28T09:36:17;10.53;;;5.40;;
77828;SDS011;67019;51.034;3.728;2023-02-28T09:38:47;6.55;;;5.15;;
77828;SDS011;67019;51.034;3.728;2023-02-28T09:41:17;8.85;;;4.50;;
77828;SDS011;67019;51.034;3.728;2023-02-28T09:43:55;6.05;;;4.05;;
77828;SDS011;67019;51.034;3.728;2023-02-28T09:46:32;9.30;;;5.50;;
77828;SDS011;67019;51.034;3.728;2023-02-28T09:49:06;10.20;;;5.75;;
77828;SDS011;67019;51.034;3.728;2023-02-28T09:52:24;6.22;;;4.08;;
77828;SDS011;67019;51.034;3.728;2023-02-28T09:54:16;5.70;;;4.40;;
77828;SDS011;67019;51.034;3.728;2023-02-28T09:56:45;9.73;;;4.80;;
77828;SDS011;67019;51.034;3.728;2023-02-28T09:59:29;6.80;;;4.42;;
77828;SDS011;67019;51.034;3.728;2023-02-28T10:05:13;6.22;;;4.05;;
77828;SDS011;67019;51.034;3.728;2023-02-28T10:10:29;10.25;;;4.08;;
77828;SDS011;67019;51.034;3.728;2023-02-28T10:13:02;7.35;;;4.17;;
77828;SDS011;67019;51.034;3.728;2023-02-28T10:15:32;7.10;;;4.33;;
77828;SDS011;67019;51.034;3.728;2023-02-28T10:18:04;4.37;;;3.65;;
77828;SDS011;67019;51.034;3.728;2023-02-28T10:20:33;6.33;;;4.35;;
77828;SDS011;67019;51.034;3.728;2023-02-28T10:25:50;8.25;;;3.83;;
77828;SDS011;67019;51.034;3.728;2023-02-28T10:28:18;8.93;;;3.12;;
77828;SDS011;67019;51.034;3.728;2023-02-28T10:30:49;13.05;;;3.85;;
77828;SDS011;67019;51.034;3.728;2023-02-28T10:33:25;8.43;;;4.08;;
77828;SDS011;67019;51.034;3.728;2023-02-28T10:36:03;6.67;;;4.55;;
77828;SDS011;67019;51.034;3.728;2023-02-28T10:38:38;8.00;;;2.83;;
77828;SDS011;67019;51.034;3.728;2023-02-28T10:43:38;6.40;;;2.60;;
77828;SDS011;67019;51.034;3.728;2023-02-28T10:48:47;7.62;;;3.60;;
77828;SDS011;67019;51.034;3.728;2023-02-28T10:51:19;4.53;;;3.08;;
77828;SDS011;67019;51.034;3.728;2023-02-28T10:53:48;6.20;;;2.77;;
77828;SDS011;67019;51.034;3.728;2023-02-28T10:56:19;5.78;;;3.15;;
77828;SDS011;67019;51.034;3.728;2023-02-28T11:01:40;3.05;;;2.05;;
77828;SDS011;67019;51.034;3.728;2023-02-28T11:06:58;6.47;;;2.55;;
77828;SDS011;67019;51.034;3.728;2023-02-28T11:09:35;4.07;;;2.63;;
77828;SDS011;67019;51.034;3.728;2023-02-28T11:12:07;6.58;;;3.10;;
77828;SDS011;67019;51.034;3.728;2023-02-28T11:14:46;6.45;;;2.62;;
77828;SDS011;67019;51.034;3.728;2023-02-28T11:17:24;6.45;;;3.98;;
77828;SDS011;67019;51.034;3.728;2023-02-28T11:20:04;5.15;;;3.33;;
77828;SDS011;67019;51.034;3.728;2023-02-28T11:22:35;7.10;;;4.10;;
77828;SDS011;67019;51.034;3.728;2023-02-28T11:25:16;11.50;;;3.35;;
77828;SDS011;67019;51.034;3.728;2023-02-28T11:33:50;3.15;;;2.02;;
77828;SDS011;67019;51.034;3.728;2023-02-28T11:35:38;5.45;;;3.72;;
77828;SDS011;67019;51.034;3.728;2023-02-28T11:38:09;4.85;;;3.15;;
77828;SDS011;67019;51.034;3.728;2023-02-28T11:43:16;3.92;;;2.77;;
77828;SDS011;67019;51.034;3.728;2023-02-28T11:46:05;4.62;;;2.83;;
77828;SDS011;67019;51.034;3.728;2023-02-28T11:48:45;5.87;;;2.25;;
77828;SDS011;67019;51.034;3.728;2023-02-28T11:56:47;3.30;;;2.02;;
77828;SDS011;67019;51.034;3.728;2023-02-28T11:59:29;2.45;;;2.12;;
77828;SDS011;67019;51.034;3.728;2023-02-28T12:07:20;4.28;;;2.70;;
77828;SDS011;67019;51.034;3.728;2023-02-28T12:09:57;3.58;;;2.65;;
77828;SDS011;67019;51.034;3.728;2023-02-28T12:21:08;4.22;;;2.10;;
77828;SDS011;67019;51.034;3.728;2023-02-28T12:23:58;3.25;;;2.47;;
77828;SDS011;67019;51.034;3.728;2023-02-28T12:26:44;3.47;;;2.47;;
77828;SDS011;67019;51.034;3.728;2023-02-28T12:34:31;11.30;;;3.15;;
77828;SDS011;67019;51.034;3.728;2023-02-28T12:39:31;6.80;;;1.90;;
77828;SDS011;67019;51.034;3.728;2023-02-28T12:42:01;2.85;;;2.42;;
77828;SDS011;67019;51.034;3.728;2023-02-28T12:44:35;1.45;;;1.35;;
77828;SDS011;67019;51.034;3.728;2023-02-28T12:47:22;2.87;;;2.15;;
77828;SDS011;67019;51.034;3.728;2023-02-28T12:49:56;3.58;;;2.33;;
77828;SDS011;67019;51.034;3.728;2023-02-28T12:52:36;2.60;;;2.10;;
77828;SDS011;67019;51.034;3.728;2023-02-28T12:58:26;5.40;;;2.02;;
77828;SDS011;67019;51.034;3.728;2023-02-28T13:01:03;2.52;;;1.85;;
77828;SDS011;67019;51.034;3.728;2023-02-28T13:03:43;3.87;;;2.85;;
77828;SDS011;67019;51.034;3.728;2023-02-28T13:11:45;2.45;;;2.22;;
77828;SDS011;67019;51.034;3.728;2023-02-28T13:14:22;3.75;;;2.83;;
77828;SDS011;67019;51.034;3.728;2023-02-28T13:17:03;4.42;;;2.80;;
77828;SDS011;67019;51.034;3.728;2023-02-28T13:28:02;3.02;;;2.35;;
77828;SDS011;67019;51.034;3.728;2023-02-28T13:33:29;32.48;;;4.33;;
77828;SDS011;67019;51.034;3.728;2023-02-28T13:38:43;6.28;;;3.00;;
77828;SDS011;67019;51.034;3.728;2023-02-28T13:44:06;2.77;;;1.90;;
77828;SDS011;67019;51.034;3.728;2023-02-28T13:49:23;2.12;;;1.82;;
77828;SDS011;67019;51.034;3.728;2023-02-28T13:57:38;7.15;;;2.08;;
77828;SDS011;67019;51.034;3.728;2023-02-28T14:05:39;3.77;;;2.50;;
77828;SDS011;67019;51.034;3.728;2023-02-28T14:08:17;2.27;;;2.08;;
77828;SDS011;67019;51.034;3.728;2023-02-28T14:10:47;3.42;;;1.75;;
77828;SDS011;67019;51.034;3.728;2023-02-28T14:16:07;2.40;;;2.10;;
77828;SDS011;67019;51.034;3.728;2023-02-28T14:18:36;4.97;;;2.47;;
77828;SDS011;67019;51.034;3.728;2023-02-28T14:37:56;5.28;;;2.75;;
77828;SDS011;67019;51.034;3.728;2023-02-28T14:40:32;5.58;;;2.52;;
77828;SDS011;67019;51.034;3.728;2023-02-28T14:43:03;4.83;;;2.87;;
77828;SDS011;67019;51.034;3.728;2023-02-28T14:45:32;5.40;;;3.87;;
77828;SDS011;67019;51.034;3.728;2023-02-28T14:48:03;4.00;;;3.47;;
77828;SDS011;67019;51.034;3.728;2023-02-28T14:50:35;4.70;;;3.02;;
77828;SDS011;67019;51.034;3.728;2023-02-28T14:53:05;6.78;;;2.65;;
77828;SDS011;67019;51.034;3.728;2023-02-28T14:55:34;7.97;;;3.85;;
77828;SDS011;67019;51.034;3.728;2023-02-28T14:58:04;8.28;;;3.10;;
77828;SDS011;67019;51.034;3.728;2023-02-28T15:00:40;7.92;;;2.83;;
77828;SDS011;67019;51.034;3.728;2023-02-28T15:06:05;3.85;;;2.77;;
77828;SDS011;67019;51.034;3.728;2023-02-28T15:08:35;4.60;;;2.95;;
77828;SDS011;67019;51.034;3.728;2023-02-28T15:11:07;2.60;;;2.40;;
77828;SDS011;67019;51.034;3.728;2023-02-28T15:13:41;6.87;;;3.08;;
77828;SDS011;67019;51.034;3.728;2023-02-28T15:16:17;2.25;;;2.05;;
77828;SDS011;67019;51.034;3.728;2023-02-28T15:18:48;5.15;;;3.60;;
77828;SDS011;67019;51.034;3.728;2023-02-28T15:21:20;3.55;;;2.90;;
77828;SDS011;67019;51.034;3.728;2023-02-28T15:23:54;4.60;;;2.80;;
77828;SDS011;67019;51.034;3.728;2023-02-28T15:26:27;3.70;;;2.77;;
77828;SDS011;67019;51.034;3.728;2023-02-28T15:29:00;3.85;;;2.80;;
77828;SDS011;67019;51.034;3.728;2023-02-28T15:31:35;7.70;;;3.12;;
77828;SDS011;67019;51.034;3.728;2023-02-28T15:34:12;4.05;;;2.95;;
77828;SDS011;67019;51.034;3.728;2023-02-28T15:36:40;3.70;;;3.02;;
77828;SDS011;67019;51.034;3.728;2023-02-28T15:44:48;6.17;;;3.85;;
77828;SDS011;67019;51.034;3.728;2023-02-28T15:47:29;5.58;;;3.25;;
77828;SDS011;67019;51.034;3.728;2023-02-28T15:50:00;3.70;;;3.30;;
77828;SDS011;67019;51.034;3.728;2023-02-28T15:54:57;4.67;;;2.98;;
77828;SDS011;67019;51.034;3.728;2023-02-28T15:57:26;5.03;;;3.20;;
77828;SDS011;67019;51.034;3.728;2023-02-28T15:59:56;7.65;;;3.80;;
77828;SDS011;67019;51.034;3.728;2023-02-28T16:02:36;3.85;;;3.22;;
77828;SDS011;67019;51.034;3.728;2023-02-28T16:07:39;4.78;;;3.20;;
77828;SDS011;67019;51.034;3.728;2023-02-28T16:10:10;18.67;;;3.98;;
77828;SDS011;67019;51.034;3.728;2023-02-28T16:12:41;8.93;;;4.83;;
77828;SDS011;67019;51.034;3.728;2023-02-28T16:15:17;8.03;;;3.45;;
77828;SDS011;67019;51.034;3.728;2023-02-28T16:17:45;4.58;;;2.62;;
77828;SDS011;67019;51.034;3.728;2023-02-28T16:20:14;4.45;;;3.52;;
77828;SDS011;67019;51.034;3.728;2023-02-28T16:22:44;6.10;;;3.58;;
77828;SDS011;67019;51.034;3.728;2023-02-28T16:25:12;7.80;;;4.65;;
77828;SDS011;67019;51.034;3.728;2023-02-28T16:27:41;8.10;;;4.42;;
77828;SDS011;67019;51.034;3.728;2023-02-28T16:30:15;5.83;;;4.40;;
77828;SDS011;67019;51.034;3.728;2023-02-28T16:32:50;6.35;;;3.22;;
77828;SDS011;67019;51.034;3.728;2023-02-28T16:35:19;6.30;;;3.17;;
77828;SDS011;67019;51.034;3.728;2023-02-28T16:37:47;9.93;;;4.35;;
77828;SDS011;67019;51.034;3.728;2023-02-28T16:40:15;7.17;;;5.85;;
77828;SDS011;67019;51.034;3.728;2023-02-28T16:42:46;5.55;;;3.87;;
77828;SDS011;67019;51.034;3.728;2023-02-28T16:45:16;6.45;;;3.60;;
77828;SDS011;67019;51.034;3.728;2023-02-28T16:47:45;6.00;;;4.62;;
77828;SDS011;67019;51.034;3.728;2023-02-28T16:50:14;6.30;;;3.47;;
77828;SDS011;67019;51.034;3.728;2023-02-28T16:52:47;6.47;;;3.95;;
77828;SDS011;67019;51.034;3.728;2023-02-28T16:55:15;5.62;;;4.10;;
77828;SDS011;67019;51.034;3.728;2023-02-28T16:57:43;6.00;;;3.65;;
77828;SDS011;67019;51.034;3.728;2023-02-28T17:00:13;5.37;;;2.98;;
77828;SDS011;67019;51.034;3.728;2023-02-28T17:02:41;4.50;;;3.80;;
77828;SDS011;67019;51.034;3.728;2023-02-28T17:05:10;9.68;;;4.10;;
77828;SDS011;67019;51.034;3.728;2023-02-28T17:07:39;16.50;;;3.95;;
77828;SDS011;67019;51.034;3.728;2023-02-28T17:10:13;6.83;;;4.90;;
77828;SDS011;67019;51.034;3.728;2023-02-28T17:12:43;6.45;;;4.15;;
77828;SDS011;67019;51.034;3.728;2023-02-28T17:15:12;6.35;;;3.92;;
77828;SDS011;67019;51.034;3.728;2023-02-28T17:17:41;7.03;;;4.63;;
77828;SDS011;67019;51.034;3.728;2023-02-28T17:20:16;4.75;;;3.70;;
77828;SDS011;67019;51.034;3.728;2023-02-28T17:22:48;3.58;;;3.27;;
77828;SDS011;67019;51.034;3.728;2023-02-28T17:25:18;7.03;;;4.40;;
77828;SDS011;67019;51.034;3.728;2023-02-28T17:27:48;7.40;;;4.62;;
77828;SDS011;67019;51.034;3.728;2023-02-28T17:30:18;5.70;;;4.05;;
77828;SDS011;67019;51.034;3.728;2023-02-28T17:35:14;10.43;;;4.22;;
77828;SDS011;67019;51.034;3.728;2023-02-28T17:37:42;19.10;;;5.95;;
77828;SDS011;67019;51.034;3.728;2023-02-28T17:40:15;4.65;;;3.50;;
77828;SDS011;67019;51.034;3.728;2023-02-28T17:42:41;8.48;;;4.72;;
77828;SDS011;67019;51.034;3.728;2023-02-28T17:45:10;5.90;;;4.17;;
77828;SDS011;67019;51.034;3.728;2023-02-28T17:47:38;10.43;;;4.53;;
77828;SDS011;67019;51.034;3.728;2023-02-28T17:50:11;6.50;;;4.00;;
77828;SDS011;67019;51.034;3.728;2023-02-28T17:55:05;5.05;;;4.10;;
77828;SDS011;67019;51.034;3.728;2023-02-28T17:57:33;8.28;;;5.17;;
77828;SDS011;67019;51.034;3.728;2023-02-28T18:00:01;13.08;;;4.78;;
77828;SDS011;67019;51.034;3.728;2023-02-28T18:02:31;9.40;;;5.22;;
77828;SDS011;67019;51.034;3.728;2023-02-28T18:05:00;10.35;;;5.15;;
77828;SDS011;67019;51.034;3.728;2023-02-28T18:07:29;7.53;;;5.20;;
77828;SDS011;67019;51.034;3.728;2023-02-28T18:09:58;8.45;;;5.42;;
77828;SDS011;67019;51.034;3.728;2023-02-28T18:12:29;7.03;;;5.35;;
77828;SDS011;67019;51.034;3.728;2023-02-28T18:14:58;7.35;;;5.05;;
77828;SDS011;67019;51.034;3.728;2023-02-28T18:17:27;7.35;;;4.72;;